sensor_id;sensor_type;location;lat;lon;timestamp;pressure;altitude;pressure_sealevel;temperature;humidity
32109;BME280;18624;50.042;8.436;2022-11-04T00:00:09;99300.88;;;10.75;100.00
32109;BME280;18624;50.042;8.436;2022-11-04T00:02:35;99298.59;;;10.73;100.00
32109;BME280;18624;50.042;8.436;2022-11-04T00:05:02;99311.69;;;10.69;100.00
32109;BME280;18624;50.042;8.436;2022-11-04T00:07:29;99310.47;;;10.79;100.00
32109;BME280;18624;50.042;8.436;2022-11-04T00:10:13;99329.50;;;10.83;100.00
32109;BME280;18624;50.042;8.436;2022-11-04T00:12:40;99335.28;;;10.85;100.00
32109;BME280;18624;50.042;8.436;2022-11-04T00:15:07;99335.16;;;10.88;100.00
32109;BME280;18624;50.042;8.436;2022-11-04T00:17:52;99321.00;;;10.90;100.00
32109;BME280;18624;50.042;8.436;2022-11-04T00:20:18;99322.94;;;10.89;100.00
32109;BME280;18624;50.042;8.436;2022-11-04T00:23:03;99324.03;;;10.92;100.00
32109;BME280;18624;50.042;8.436;2022-11-04T00:25:48;99324.31;;;10.94;100.00
32109;BME280;18624;50.042;8.436;2022-11-04T00:28:33;99327.38;;;10.96;100.00
32109;BME280;18624;50.042;8.436;2022-11-04T00:31:09;99333.16;;;10.98;100.00
32109;BME280;18624;50.042;8.436;2022-11-04T00:33:55;99316.72;;;10.98;100.00
32109;BME280;18624;50.042;8.436;2022-11-04T00:36:23;99322.19;;;10.98;100.00
32109;BME280;18624;50.042;8.436;2022-11-04T00:38:50;99315.66;;;10.96;100.00
32109;BME280;18624;50.042;8.436;2022-11-04T00:41:16;99236.59;;;10.39;100.00
32109;BME280;18624;50.042;8.436;2022-11-04T00:43:58;99323.75;;;10.99;100.00
32109;BME280;18624;50.042;8.436;2022-11-04T00:46:26;99319.03;;;11.00;100.00
32109;BME280;18624;50.042;8.436;2022-11-04T00:48:52;99258.22;;;10.55;100.00
32109;BME280;18624;50.042;8.436;2022-11-04T00:51:19;99330.75;;;11.00;100.00
32109;BME280;18624;50.042;8.436;2022-11-04T00:53:47;99326.78;;;11.01;100.00
32109;BME280;18624;50.042;8.436;2022-11-04T00:56:13;99313.97;;;10.98;100.00
32109;BME280;18624;50.042;8.436;2022-11-04T00:58:40;99316.88;;;10.95;100.00
32109;BME280;18624;50.042;8.436;2022-11-04T01:01:11;99319.00;;;10.90;100.00
32109;BME280;18624;50.042;8.436;2022-11-04T01:03:38;99337.59;;;11.05;100.00
32109;BME280;18624;50.042;8.436;2022-11-04T01:06:05;99356.78;;;11.05;100.00
32109;BME280;18624;50.042;8.436;2022-11-04T01:08:31;99362.75;;;11.03;100.00
32109;BME280;18624;50.042;8.436;2022-11-04T01:11:03;99358.03;;;11.04;100.00
32109;BME280;18624;50.042;8.436;2022-11-04T01:13:30;99362.44;;;11.01;100.00
32109;BME280;18624;50.042;8.436;2022-11-04T01:15:58;99324.91;;;10.71;100.00
32109;BME280;18624;50.042;8.436;2022-11-04T01:18:25;99330.28;;;10.83;100.00
32109;BME280;18624;50.042;8.436;2022-11-04T01:20:51;99343.22;;;11.01;100.00
32109;BME280;18624;50.042;8.436;2022-11-04T01:23:18;99355.44;;;11.00;100.00
32109;BME280;18624;50.042;8.436;2022-11-04T01:25:44;99377.34;;;11.00;100.00
32109;BME280;18624;50.042;8.436;2022-11-04T01:28:11;99362.88;;;11.00;100.00
32109;BME280;18624;50.042;8.436;2022-11-04T01:30:37;99368.06;;;10.98;100.00
32109;BME280;18624;50.042;8.436;2022-11-04T01:33:04;99376.41;;;10.94;100.00
32109;BME280;18624;50.042;8.436;2022-11-04T01:35:31;99387.09;;;10.92;100.00
32109;BME280;18624;50.042;8.436;2022-11-04T01:37:57;99376.59;;;10.90;100.00
32109;BME280;18624;50.042;8.436;2022-11-04T01:40:24;99386.34;;;10.92;100.00
32109;BME280;18624;50.042;8.436;2022-11-04T01:42:50;99384.06;;;10.90;100.00
32109;BME280;18624;50.042;8.436;2022-11-04T01:45:18;99379.00;;;10.88;100.00
32109;BME280;18624;50.042;8.436;2022-11-04T01:50:24;99382.34;;;10.83;100.00
32109;BME280;18624;50.042;8.436;2022-11-04T01:53:29;99268.13;;;10.03;100.00
32109;BME280;18624;50.042;8.436;2022-11-04T01:55:59;99379.31;;;10.81;100.00
32109;BME280;18624;50.042;8.436;2022-11-04T01:58:31;99391.94;;;10.79;100.00
32109;BME280;18624;50.042;8.436;2022-11-04T02:01:00;99389.66;;;10.77;100.00
32109;BME280;18624;50.042;8.436;2022-11-04T02:03:57;99394.06;;;10.75;100.00
32109;BME280;18624;50.042;8.436;2022-11-04T02:06:22;99391.00;;;10.63;100.00
32109;BME280;18624;50.042;8.436;2022-11-04T02:08:48;99388.69;;;10.62;100.00
32109;BME280;18624;50.042;8.436;2022-11-04T02:11:15;99389.63;;;10.59;100.00
32109;BME280;18624;50.042;8.436;2022-11-04T02:14:00;99397.50;;;10.57;100.00
32109;BME280;18624;50.042;8.436;2022-11-04T02:16:38;99406.81;;;10.59;100.00
32109;BME280;18624;50.042;8.436;2022-11-04T02:30:21;99412.25;;;10.50;100.00
32109;BME280;18624;50.042;8.436;2022-11-04T02:33:06;99413.78;;;10.51;100.00
32109;BME280;18624;50.042;8.436;2022-11-04T02:46:37;99420.47;;;10.50;100.00
32109;BME280;18624;50.042;8.436;2022-11-04T02:49:15;99431.88;;;10.49;100.00
32109;BME280;18624;50.042;8.436;2022-11-04T02:51:43;99439.03;;;10.46;100.00
32109;BME280;18624;50.042;8.436;2022-11-04T02:56:50;99435.97;;;10.44;100.00
32109;BME280;18624;50.042;8.436;2022-11-04T03:01:52;99366.44;;;9.88;100.00
32109;BME280;18624;50.042;8.436;2022-11-04T03:04:24;99435.34;;;10.40;100.00
32109;BME280;18624;50.042;8.436;2022-11-04T03:06:53;99431.53;;;10.37;100.00
32109;BME280;18624;50.042;8.436;2022-11-04T03:09:21;99436.84;;;10.32;100.00
32109;BME280;18624;50.042;8.436;2022-11-04T03:11:54;99440.00;;;10.30;100.00
32109;BME280;18624;50.042;8.436;2022-11-04T03:14:26;99439.84;;;10.25;100.00
32109;BME280;18624;50.042;8.436;2022-11-04T03:16:58;99430.44;;;10.13;100.00
32109;BME280;18624;50.042;8.436;2022-11-04T03:19:45;99445.09;;;10.19;100.00
32109;BME280;18624;50.042;8.436;2022-11-04T03:22:18;99433.81;;;10.17;100.00
32109;BME280;18624;50.042;8.436;2022-11-04T03:24:47;99377.47;;;9.76;100.00
32109;BME280;18624;50.042;8.436;2022-11-04T03:35:06;99453.28;;;10.10;100.00
32109;BME280;18624;50.042;8.436;2022-11-04T03:37:34;99349.41;;;9.41;100.00
32109;BME280;18624;50.042;8.436;2022-11-04T03:40:00;99455.84;;;10.04;100.00
32109;BME280;18624;50.042;8.436;2022-11-04T03:42:28;99466.63;;;10.08;100.00
32109;BME280;18624;50.042;8.436;2022-11-04T03:44:56;99475.31;;;10.06;100.00
32109;BME280;18624;50.042;8.436;2022-11-04T03:47:28;99472.31;;;9.92;100.00
32109;BME280;18624;50.042;8.436;2022-11-04T03:50:08;99367.03;;;9.18;100.00
32109;BME280;18624;50.042;8.436;2022-11-04T03:52:35;99478.78;;;9.85;100.00
32109;BME280;18624;50.042;8.436;2022-11-04T03:55:03;99467.84;;;9.85;100.00
32109;BME280;18624;50.042;8.436;2022-11-04T04:00:15;99482.63;;;9.87;100.00
32109;BME280;18624;50.042;8.436;2022-11-04T04:05:34;99497.19;;;9.84;100.00
32109;BME280;18624;50.042;8.436;2022-11-04T04:08:27;99507.69;;;9.86;100.00
32109;BME280;18624;50.042;8.436;2022-11-04T04:11:09;99494.00;;;9.86;100.00
32109;BME280;18624;50.042;8.436;2022-11-04T04:14:02;99491.16;;;9.89;100.00
32109;BME280;18624;50.042;8.436;2022-11-04T04:16:45;99495.41;;;9.90;100.00
32109;BME280;18624;50.042;8.436;2022-11-04T04:19:20;99482.75;;;9.84;100.00
32109;BME280;18624;50.042;8.436;2022-11-04T04:21:54;99478.97;;;9.90;100.00
32109;BME280;18624;50.042;8.436;2022-11-04T04:24:29;99470.00;;;9.90;100.00
32109;BME280;18624;50.042;8.436;2022-11-04T04:27:17;99479.78;;;9.91;100.00
32109;BME280;18624;50.042;8.436;2022-11-04T04:30:00;99492.06;;;9.86;100.00
32109;BME280;18624;50.042;8.436;2022-11-04T04:32:33;99492.06;;;9.86;100.00
32109;BME280;18624;50.042;8.436;2022-11-04T04:35:01;99487.00;;;9.85;100.00
32109;BME280;18624;50.042;8.436;2022-11-04T04:37:47;99484.16;;;9.88;100.00
32109;BME280;18624;50.042;8.436;2022-11-04T04:40:16;99487.66;;;9.89;100.00
32109;BME280;18624;50.042;8.436;2022-11-04T04:43:03;99385.94;;;9.25;100.00
32109;BME280;18624;50.042;8.436;2022-11-04T04:45:51;99485.38;;;9.87;100.00
32109;BME280;18624;50.042;8.436;2022-11-04T04:48:19;99483.84;;;9.86;100.00
32109;BME280;18624;50.042;8.436;2022-11-04T04:50:47;99478.78;;;9.85;100.00
32109;BME280;18624;50.042;8.436;2022-11-04T04:53:14;99447.28;;;9.58;100.00
32109;BME280;18624;50.042;8.436;2022-11-04T04:55:41;99474.66;;;9.80;100.00
32109;BME280;18624;50.042;8.436;2022-11-04T04:58:08;99472.69;;;9.81;100.00
32109;BME280;18624;50.042;8.436;2022-11-04T05:00:35;99476.63;;;9.80;100.00
32109;BME280;18624;50.042;8.436;2022-11-04T05:03:01;99492.59;;;9.81;100.00
32109;BME280;18624;50.042;8.436;2022-11-04T05:05:27;99474.22;;;9.82;100.00
32109;BME280;18624;50.042;8.436;2022-11-04T05:07:54;99465.38;;;9.78;100.00
32109;BME280;18624;50.042;8.436;2022-11-04T05:10:20;99473.00;;;9.83;100.00
32109;BME280;18624;50.042;8.436;2022-11-04T05:12:47;99473.00;;;9.83;100.00
32109;BME280;18624;50.042;8.436;2022-11-04T05:15:33;99472.25;;;9.82;100.00
32109;BME280;18624;50.042;8.436;2022-11-04T05:18:02;99481.22;;;9.83;100.00
32109;BME280;18624;50.042;8.436;2022-11-04T05:20:28;99469.63;;;9.79;100.00
32109;BME280;18624;50.042;8.436;2022-11-04T05:22:55;99470.84;;;9.78;100.00
32109;BME280;18624;50.042;8.436;2022-11-04T05:25:21;99478.59;;;9.79;100.00
32109;BME280;18624;50.042;8.436;2022-11-04T05:27:48;99474.66;;;9.80;100.00
32109;BME280;18624;50.042;8.436;2022-11-04T05:30:14;99484.84;;;9.80;100.00
32109;BME280;18624;50.042;8.436;2022-11-04T05:32:41;99494.16;;;9.82;100.00
32109;BME280;18624;50.042;8.436;2022-11-04T05:35:07;99495.47;;;9.78;100.00
32109;BME280;18624;50.042;8.436;2022-11-04T05:37:34;99482.88;;;9.80;100.00
32109;BME280;18624;50.042;8.436;2022-11-04T05:40:00;99483.97;;;9.83;100.00
32109;BME280;18624;50.042;8.436;2022-11-04T05:42:29;99463.63;;;9.71;100.00
32109;BME280;18624;50.042;8.436;2022-11-04T05:44:56;99347.16;;;9.04;100.00
32109;BME280;18624;50.042;8.436;2022-11-04T05:47:23;99467.41;;;9.86;100.00
32109;BME280;18624;50.042;8.436;2022-11-04T05:49:49;99468.19;;;9.87;100.00
32109;BME280;18624;50.042;8.436;2022-11-04T05:52:15;99466.19;;;9.87;100.00
32109;BME280;18624;50.042;8.436;2022-11-04T05:54:42;99471.69;;;9.87;100.00
32109;BME280;18624;50.042;8.436;2022-11-04T05:57:09;99468.19;;;9.87;100.00
32109;BME280;18624;50.042;8.436;2022-11-04T05:59:36;99395.16;;;9.40;100.00
32109;BME280;18624;50.042;8.436;2022-11-04T06:02:02;99468.19;;;9.87;100.00
32109;BME280;18624;50.042;8.436;2022-11-04T06:04:29;99464.81;;;9.83;100.00
32109;BME280;18624;50.042;8.436;2022-11-04T06:06:55;99457.81;;;9.82;100.00
32109;BME280;18624;50.042;8.436;2022-11-04T06:09:22;99452.00;;;9.80;100.00
32109;BME280;18624;50.042;8.436;2022-11-04T06:12:12;99452.34;;;9.82;100.00
32109;BME280;18624;50.042;8.436;2022-11-04T06:14:42;99446.53;;;9.80;100.00
32109;BME280;18624;50.042;8.436;2022-11-04T06:17:20;99452.13;;;9.76;100.00
32109;BME280;18624;50.042;8.436;2022-11-04T06:19:47;99453.44;;;9.72;100.00
32109;BME280;18624;50.042;8.436;2022-11-04T06:22:15;99461.03;;;9.68;100.00
32109;BME280;18624;50.042;8.436;2022-11-04T06:24:42;99473.63;;;9.65;100.00
32109;BME280;18624;50.042;8.436;2022-11-04T06:27:09;99469.50;;;9.60;100.00
32109;BME280;18624;50.042;8.436;2022-11-04T06:29:36;99475.84;;;9.57;100.00
32109;BME280;18624;50.042;8.436;2022-11-04T06:32:08;99439.97;;;9.21;100.00
32109;BME280;18624;50.042;8.436;2022-11-04T06:34:35;99494.69;;;9.55;100.00
32109;BME280;18624;50.042;8.436;2022-11-04T06:37:02;99495.09;;;9.54;100.00
32109;BME280;18624;50.042;8.436;2022-11-04T06:39:29;99495.56;;;9.52;100.00
32109;BME280;18624;50.042;8.436;2022-11-04T06:41:55;99507.59;;;9.55;100.00
32109;BME280;18624;50.042;8.436;2022-11-04T06:44:27;99508.03;;;9.53;100.00
32109;BME280;18624;50.042;8.436;2022-11-04T06:46:54;99507.59;;;9.55;100.00
32109;BME280;18624;50.042;8.436;2022-11-04T06:49:21;99513.84;;;9.55;100.00
32109;BME280;18624;50.042;8.436;2022-11-04T06:51:48;99525.84;;;9.58;100.00
32109;BME280;18624;50.042;8.436;2022-11-04T06:54:15;99527.72;;;9.61;100.00
32109;BME280;18624;50.042;8.436;2022-11-04T06:56:42;99530.91;;;9.59;100.00
32109;BME280;18624;50.042;8.436;2022-11-04T06:59:18;99526.19;;;9.60;100.00
32109;BME280;18624;50.042;8.436;2022-11-04T07:01:45;99534.69;;;9.62;100.00
32109;BME280;18624;50.042;8.436;2022-11-04T07:04:12;99536.22;;;9.63;100.00
32109;BME280;18624;50.042;8.436;2022-11-04T07:06:41;99537.00;;;9.63;100.00
32109;BME280;18624;50.042;8.436;2022-11-04T07:09:12;99527.91;;;9.67;100.00
32109;BME280;18624;50.042;8.436;2022-11-04T07:11:40;99550.13;;;9.69;100.00
32109;BME280;18624;50.042;8.436;2022-11-04T07:14:06;99541.59;;;9.67;100.00
32109;BME280;18624;50.042;8.436;2022-11-04T07:16:34;99560.44;;;9.64;100.00
32109;BME280;18624;50.042;8.436;2022-11-04T07:19:01;99561.63;;;9.63;100.00
32109;BME280;18624;50.042;8.436;2022-11-04T07:21:27;99546.28;;;9.66;100.00
32109;BME280;18624;50.042;8.436;2022-11-04T07:23:54;99550.25;;;9.65;100.00
32109;BME280;18624;50.042;8.436;2022-11-04T07:26:20;99561.19;;;9.65;100.00
32109;BME280;18624;50.042;8.436;2022-11-04T07:28:47;99553.41;;;9.63;100.00
32109;BME280;18624;50.042;8.436;2022-11-04T07:31:14;99518.34;;;9.36;100.00
32109;BME280;18624;50.042;8.436;2022-11-04T07:33:42;99565.78;;;9.68;100.00
32109;BME280;18624;50.042;8.436;2022-11-04T07:36:11;99570.81;;;9.70;100.00
32109;BME280;18624;50.042;8.436;2022-11-04T07:38:38;99556.69;;;9.71;100.00
32109;BME280;18624;50.042;8.436;2022-11-04T07:41:04;99565.22;;;9.73;100.00
32109;BME280;18624;50.042;8.436;2022-11-04T07:43:31;99563.13;;;9.77;100.00
32109;BME280;18624;50.042;8.436;2022-11-04T07:46:03;99563.13;;;9.77;100.00
32109;BME280;18624;50.042;8.436;2022-11-04T07:48:30;99565.31;;;9.82;100.00
32109;BME280;18624;50.042;8.436;2022-11-04T07:50:57;99557.84;;;9.83;100.00
32109;BME280;18624;50.042;8.436;2022-11-04T07:53:28;99490.69;;;9.34;100.00
32109;BME280;18624;50.042;8.436;2022-11-04T07:55:55;99565.50;;;9.88;100.00
32109;BME280;18624;50.042;8.436;2022-11-04T07:58:22;99562.31;;;9.89;100.00
32109;BME280;18624;50.042;8.436;2022-11-04T08:00:49;99568.88;;;9.92;100.00
32109;BME280;18624;50.042;8.436;2022-11-04T08:03:15;99573.47;;;9.95;100.00
32109;BME280;18624;50.042;8.436;2022-11-04T08:05:42;99577.75;;;9.96;100.00
32109;BME280;18624;50.042;8.436;2022-11-04T08:08:08;99560.88;;;9.98;100.00
32109;BME280;18624;50.042;8.436;2022-11-04T08:10:35;99557.94;;;9.92;100.00
32109;BME280;18624;50.042;8.436;2022-11-04T08:13:01;99573.97;;;10.03;100.00
32109;BME280;18624;50.042;8.436;2022-11-04T08:15:28;99569.59;;;10.05;100.00
32109;BME280;18624;50.042;8.436;2022-11-04T08:17:55;99569.41;;;10.00;100.00
32109;BME280;18624;50.042;8.436;2022-11-04T08:20:21;99572.91;;;10.00;100.00
32109;BME280;18624;50.042;8.436;2022-11-04T08:22:47;99571.69;;;10.01;100.00
32109;BME280;18624;50.042;8.436;2022-11-04T08:25:14;99567.75;;;10.02;100.00
32109;BME280;18624;50.042;8.436;2022-11-04T08:27:40;99563.38;;;10.05;100.00
32109;BME280;18624;50.042;8.436;2022-11-04T08:30:07;99567.75;;;10.02;100.00
32109;BME280;18624;50.042;8.436;2022-11-04T08:32:34;99558.00;;;10.01;100.00
32109;BME280;18624;50.042;8.436;2022-11-04T08:35:01;99560.75;;;10.01;100.00
32109;BME280;18624;50.042;8.436;2022-11-04T08:37:27;99561.19;;;10.00;100.00
32109;BME280;18624;50.042;8.436;2022-11-04T08:39:53;99552.19;;;9.99;100.00
32109;BME280;18624;50.042;8.436;2022-11-04T08:42:20;99557.56;;;10.03;100.00
32109;BME280;18624;50.042;8.436;2022-11-04T08:44:50;99553.59;;;10.04;100.00
32109;BME280;18624;50.042;8.436;2022-11-04T08:47:17;99564.00;;;10.09;100.00
32109;BME280;18624;50.042;8.436;2022-11-04T08:49:43;99557.19;;;10.13;100.00
32109;BME280;18624;50.042;8.436;2022-11-04T08:52:10;99555.06;;;10.18;100.00
32109;BME280;18624;50.042;8.436;2022-11-04T08:54:36;99551.44;;;10.21;100.00
32109;BME280;18624;50.042;8.436;2022-11-04T08:57:03;99545.34;;;10.17;100.00
32109;BME280;18624;50.042;8.436;2022-11-04T08:59:29;99540.06;;;10.22;100.00
32109;BME280;18624;50.042;8.436;2022-11-04T09:01:56;99547.41;;;10.25;100.00
32109;BME280;18624;50.042;8.436;2022-11-04T09:04:22;99555.50;;;10.29;100.00
32109;BME280;18624;50.042;8.436;2022-11-04T09:06:49;99551.44;;;10.33;100.00
32109;BME280;18624;50.042;8.436;2022-11-04T09:09:17;99555.38;;;10.32;100.00
32109;BME280;18624;50.042;8.436;2022-11-04T09:11:45;99576.06;;;10.33;100.00
32109;BME280;18624;50.042;8.436;2022-11-04T09:14:12;99565.75;;;10.37;100.00
32109;BME280;18624;50.042;8.436;2022-11-04T09:16:40;99570.00;;;10.38;100.00
32109;BME280;18624;50.042;8.436;2022-11-04T09:19:07;99572.31;;;10.40;100.00
32109;BME280;18624;50.042;8.436;2022-11-04T09:21:34;99496.63;;;9.89;100.00
32109;BME280;18624;50.042;8.436;2022-11-04T09:24:01;99572.88;;;10.35;100.00
32109;BME280;18624;50.042;8.436;2022-11-04T09:26:27;99568.03;;;10.39;100.00
32109;BME280;18624;50.042;8.436;2022-11-04T09:28:55;99514.72;;;10.09;100.00
32109;BME280;18624;50.042;8.436;2022-11-04T09:31:22;99562.44;;;10.43;100.00
32109;BME280;18624;50.042;8.436;2022-11-04T09:33:49;99572.94;;;10.44;100.00
32109;BME280;18624;50.042;8.436;2022-11-04T09:36:16;99572.00;;;10.38;100.00
32109;BME280;18624;50.042;8.436;2022-11-04T09:38:42;99567.72;;;10.37;100.00
32109;BME280;18624;50.042;8.436;2022-11-04T09:41:32;99570.66;;;10.43;100.00
32109;BME280;18624;50.042;8.436;2022-11-04T09:47:29;99584.88;;;10.50;100.00
32109;BME280;18624;50.042;8.436;2022-11-04T09:49:58;99593.41;;;10.52;100.00
32109;BME280;18624;50.042;8.436;2022-11-04T09:52:35;99537.44;;;10.19;100.00
32109;BME280;18624;50.042;8.436;2022-11-04T09:55:21;99591.00;;;10.54;100.00
32109;BME280;18624;50.042;8.436;2022-11-04T09:57:54;99587.34;;;10.57;100.00
32109;BME280;18624;50.042;8.436;2022-11-04T10:00:21;99583.41;;;10.58;100.00
32109;BME280;18624;50.042;8.436;2022-11-04T10:03:00;99585.56;;;10.63;100.00
32109;BME280;18624;50.042;8.436;2022-11-04T10:11:10;99578.75;;;10.68;100.00
32109;BME280;18624;50.042;8.436;2022-11-04T10:16:42;99596.00;;;10.78;100.00
32109;BME280;18624;50.042;8.436;2022-11-04T10:22:24;99591.16;;;10.82;100.00
32109;BME280;18624;50.042;8.436;2022-11-04T10:25:11;99585.19;;;10.83;100.00
32109;BME280;18624;50.042;8.436;2022-11-04T10:27:42;99591.94;;;10.92;100.00
32109;BME280;18624;50.042;8.436;2022-11-04T10:30:20;99600.94;;;10.92;100.00
32109;BME280;18624;50.042;8.436;2022-11-04T10:33:02;99589.09;;;10.95;100.00
32109;BME280;18624;50.042;8.436;2022-11-04T10:35:39;99593.22;;;11.00;100.00
32109;BME280;18624;50.042;8.436;2022-11-04T10:38:15;99590.91;;;10.98;100.00
32109;BME280;18624;50.042;8.436;2022-11-04T10:40:46;99566.53;;;10.91;100.00
32109;BME280;18624;50.042;8.436;2022-11-04T10:43:16;99535.56;;;10.81;100.00
32109;BME280;18624;50.042;8.436;2022-11-04T10:46:08;99572.69;;;11.13;100.00
32109;BME280;18624;50.042;8.436;2022-11-04T10:48:44;99567.53;;;11.15;100.00
32109;BME280;18624;50.042;8.436;2022-11-04T10:51:15;99562.66;;;11.20;100.00
32109;BME280;18624;50.042;8.436;2022-11-04T10:53:53;99555.19;;;11.20;100.00
32109;BME280;18624;50.042;8.436;2022-11-04T10:59:26;99564.53;;;11.32;100.00
32109;BME280;18624;50.042;8.436;2022-11-04T11:01:55;99561.31;;;11.24;100.00
32109;BME280;18624;50.042;8.436;2022-11-04T11:06:54;99558.56;;;11.24;100.00
32109;BME280;18624;50.042;8.436;2022-11-04T11:09:29;99554.59;;;11.25;100.00
32109;BME280;18624;50.042;8.436;2022-11-04T11:12:20;99551.09;;;11.25;100.00
32109;BME280;18624;50.042;8.436;2022-11-04T11:15:27;99559.66;;;11.27;100.00
32109;BME280;18624;50.042;8.436;2022-11-04T11:18:14;99552.03;;;11.31;100.00
32109;BME280;18624;50.042;8.436;2022-11-04T11:20:47;99555.41;;;11.35;100.00
32109;BME280;18624;50.042;8.436;2022-11-04T11:23:37;99552.50;;;11.38;100.00
32109;BME280;18624;50.042;8.436;2022-11-04T11:26:07;99563.03;;;11.40;100.00
32109;BME280;18624;50.042;8.436;2022-11-04T11:28:34;99555.56;;;11.40;100.00
32109;BME280;18624;50.042;8.436;2022-11-04T11:31:07;99556.94;;;11.45;100.00
32109;BME280;18624;50.042;8.436;2022-11-04T11:33:45;99549.94;;;11.44;100.00
32109;BME280;18624;50.042;8.436;2022-11-04T11:36:31;99558.75;;;11.48;100.00
32109;BME280;18624;50.042;8.436;2022-11-04T11:39:04;99558.31;;;11.50;100.00
32109;BME280;18624;50.042;8.436;2022-11-04T11:41:35;99560.94;;;11.53;100.00
32109;BME280;18624;50.042;8.436;2022-11-04T11:46:54;99547.38;;;11.59;100.00
32109;BME280;18624;50.042;8.436;2022-11-04T11:49:26;99541.28;;;11.64;100.00
32109;BME280;18624;50.042;8.436;2022-11-04T11:51:55;99537.31;;;11.65;100.00
32109;BME280;18624;50.042;8.436;2022-11-04T11:54:25;99543.88;;;11.68;100.00
32109;BME280;18624;50.042;8.436;2022-11-04T11:57:01;99550.88;;;11.69;100.00
32109;BME280;18624;50.042;8.436;2022-11-04T11:59:59;99549.38;;;11.68;100.00
32109;BME280;18624;50.042;8.436;2022-11-04T12:02:52;99542.66;;;11.69;100.00
32109;BME280;18624;50.042;8.436;2022-11-04T12:05:27;99510.16;;;11.49;100.00
32109;BME280;18624;50.042;8.436;2022-11-04T12:08:33;99539.75;;;11.72;100.00
32109;BME280;18624;50.042;8.436;2022-11-04T12:11:48;99545.53;;;11.74;100.00
32109;BME280;18624;50.042;8.436;2022-11-04T12:41:31;99524.81;;;12.10;100.00
32109;BME280;18624;50.042;8.436;2022-11-04T12:44:32;99518.91;;;12.11;100.00
32109;BME280;18624;50.042;8.436;2022-11-04T12:47:09;99516.59;;;12.10;100.00
32109;BME280;18624;50.042;8.436;2022-11-04T12:52:59;99532.00;;;12.07;100.00
32109;BME280;18624;50.042;8.436;2022-11-04T13:00:57;99530.47;;;11.97;100.00
32109;BME280;18624;50.042;8.436;2022-11-04T13:06:20;99530.19;;;11.95;100.00
32109;BME280;18624;50.042;8.436;2022-11-04T13:08:52;99532.59;;;11.93;100.00
32109;BME280;18624;50.042;8.436;2022-11-04T13:12:02;99545.13;;;11.94;100.00
32109;BME280;18624;50.042;8.436;2022-11-04T13:17:14;99546.94;;;11.97;100.00
32109;BME280;18624;50.042;8.436;2022-11-04T13:19:52;99496.75;;;11.60;100.00
32109;BME280;18624;50.042;8.436;2022-11-04T13:22:25;99556.41;;;11.96;100.00
32109;BME280;18624;50.042;8.436;2022-11-04T13:25:27;99561.63;;;11.94;100.00
32109;BME280;18624;50.042;8.436;2022-11-04T13:27:55;99545.44;;;11.87;100.00
32109;BME280;18624;50.042;8.436;2022-11-04T13:30:48;99570.47;;;11.98;100.00
32109;BME280;18624;50.042;8.436;2022-11-04T13:33:43;99572.44;;;11.98;100.00
32109;BME280;18624;50.042;8.436;2022-11-04T13:39:04;99577.00;;;12.01;100.00
32109;BME280;18624;50.042;8.436;2022-11-04T13:46:51;99589.84;;;12.04;100.00
32109;BME280;18624;50.042;8.436;2022-11-04T13:49:23;99598.84;;;12.04;100.00
32109;BME280;18624;50.042;8.436;2022-11-04T13:52:08;99607.53;;;12.03;100.00
32109;BME280;18624;50.042;8.436;2022-11-04T13:54:38;99599.44;;;11.99;100.00
32109;BME280;18624;50.042;8.436;2022-11-04T13:59:39;99611.19;;;12.00;100.00
32109;BME280;18624;50.042;8.436;2022-11-04T14:04:45;99564.44;;;11.63;100.00
32109;BME280;18624;50.042;8.436;2022-11-04T14:07:14;99618.06;;;11.95;100.00
32109;BME280;18624;50.042;8.436;2022-11-04T14:14:44;99626.59;;;11.88;100.00
32109;BME280;18624;50.042;8.436;2022-11-04T14:20:28;99637.44;;;11.91;100.00
32109;BME280;18624;50.042;8.436;2022-11-04T14:22:57;99639.41;;;11.91;100.00
32109;BME280;18624;50.042;8.436;2022-11-04T14:28:16;99637.44;;;11.91;100.00
32109;BME280;18624;50.042;8.436;2022-11-04T14:30:48;99627.94;;;11.83;100.00
32109;BME280;18624;50.042;8.436;2022-11-04T14:46:44;99651.13;;;11.82;100.00
32109;BME280;18624;50.042;8.436;2022-11-04T14:51:57;99612.75;;;11.51;100.00
32109;BME280;18624;50.042;8.436;2022-11-04T14:54:25;99656.91;;;11.75;100.00
32109;BME280;18624;50.042;8.436;2022-11-04T14:57:08;99651.69;;;11.68;100.00
32109;BME280;18624;50.042;8.436;2022-11-04T14:59:38;99656.44;;;11.77;100.00
32109;BME280;18624;50.042;8.436;2022-11-04T15:02:11;99654.16;;;11.75;100.00
32109;BME280;18624;50.042;8.436;2022-11-04T15:04:46;99659.31;;;11.73;100.00
32109;BME280;18624;50.042;8.436;2022-11-04T15:07:30;99664.81;;;11.73;100.00
32109;BME280;18624;50.042;8.436;2022-11-04T15:09:59;99681.00;;;11.71;100.00
32109;BME280;18624;50.042;8.436;2022-11-04T15:12:25;99671.97;;;11.71;100.00
32109;BME280;18624;50.042;8.436;2022-11-04T15:15:33;99673.19;;;11.70;100.00
32109;BME280;18624;50.042;8.436;2022-11-04T15:18:07;99673.66;;;11.68;100.00
32109;BME280;18624;50.042;8.436;2022-11-04T15:20:39;99674.13;;;11.66;100.00
32109;BME280;18624;50.042;8.436;2022-11-04T15:23:12;99674.13;;;11.66;100.00
32109;BME280;18624;50.042;8.436;2022-11-04T15:25:44;99678.81;;;11.66;100.00
32109;BME280;18624;50.042;8.436;2022-11-04T15:28:17;99684.75;;;11.64;100.00
32109;BME280;18624;50.042;8.436;2022-11-04T15:30:56;99682.47;;;11.63;100.00
32109;BME280;18624;50.042;8.436;2022-11-04T15:33:24;99680.47;;;11.54;100.00
32109;BME280;18624;50.042;8.436;2022-11-04T15:35:51;99690.38;;;11.61;100.00
32109;BME280;18624;50.042;8.436;2022-11-04T15:38:18;99694.34;;;11.60;100.00
32109;BME280;18624;50.042;8.436;2022-11-04T15:40:45;99685.06;;;11.57;100.00
32109;BME280;18624;50.042;8.436;2022-11-04T15:43:13;99690.56;;;11.57;100.00
32109;BME280;18624;50.042;8.436;2022-11-04T15:45:51;99699.22;;;11.56;100.00